Time;durP1;ratioP1;P1;durP2;ratioP2;P2;SDS_P1;SDS_P2;PMS_P1;PMS_P2;Temp;Humidity;BMP_temperature;BMP_pressure;BME280_temperature;BME280_humidity;BME280_pressure;Samples;Min_cycle;Max_cycle;Signal;HPM_P1;HPM_P2
2021/10/12 00:01:55;;;;;;;;;;;;;;;9.37;75.60;100307.84;5109843;28;20323;-72
2021/10/12 00:04:24;;;;;;;;;;;;;;;9.41;75.67;100313.84;5108901;28;19982;-72
2021/10/12 00:06:52;;;;;;;;;;;;;;;9.37;75.60;100309.66;5108354;27;19972;-72
2021/10/12 00:09:21;;;;;;;;;;;;;;;9.33;75.84;100309.03;5107866;28;19975;-72
2021/10/12 00:11:49;;;;;;;;;;;;;;;9.25;75.63;100306.88;5109262;28;19972;-72
2021/10/12 00:14:17;;;;;;;;;;;;;;;9.30;75.71;100311.91;5108892;28;20423;-72
2021/10/12 00:16:45;;;;;;;;;;;;;;;9.31;75.79;100313.63;5109228;28;19963;-71
2021/10/12 00:19:13;;;;;;;;;;;;;;;9.24;75.60;100307.84;5109297;28;19992;-71
2021/10/12 00:21:42;;;;;;;;;;;;;;;9.31;75.73;100306.44;5105115;28;19988;-72
2021/10/12 00:24:12;;;;;;;;;;;;;;;9.34;75.54;100298.19;5109061;28;20059;-72
2021/10/12 00:26:40;;;;;;;;;;;;;;;9.28;75.05;100306.66;5109205;28;19972;-73
2021/10/12 00:29:11;;;;;;;;;;;;;;;9.33;74.65;100314.38;5108997;28;20183;-71
2021/10/12 00:31:39;;;;;;;;;;;;;;;9.25;75.10;100311.38;5108484;28;20391;-73
2021/10/12 00:34:07;;;;;;;;;;;;;;;9.17;75.26;100303.00;5108972;28;20603;-73
2021/10/12 00:36:36;;;;;;;;;;;;;;;9.15;75.35;100299.56;5108569;28;20047;-73
2021/10/12 00:39:06;;;;;;;;;;;;;;;9.13;75.38;100301.50;5104831;28;19968;-73
2021/10/12 00:41:33;;;;;;;;;;;;;;;9.07;75.37;100307.28;5108501;28;19988;-71
2021/10/12 00:44:01;;;;;;;;;;;;;;;9.01;75.46;100301.38;5090689;28;19980;-72
2021/10/12 00:46:29;;;;;;;;;;;;;;;8.98;75.90;100306.09;5108500;28;19972;-72
2021/10/12 00:48:58;;;;;;;;;;;;;;;8.97;75.99;100307.91;5109011;28;20346;-72
2021/10/12 00:51:26;;;;;;;;;;;;;;;8.99;75.68;100303.31;5108535;28;19980;-72
2021/10/12 00:53:54;;;;;;;;;;;;;;;9.01;75.82;100309.44;5108168;28;19972;-72
2021/10/12 00:56:26;;;;;;;;;;;;;;;9.01;76.10;100309.44;5104417;28;20059;-72
2021/10/12 00:58:54;;;;;;;;;;;;;;;8.93;76.13;100313.59;5108649;28;20455;-72
2021/10/12 01:01:22;;;;;;;;;;;;;;;8.98;76.08;100309.63;5105459;28;19992;-72
2021/10/12 01:03:50;;;;;;;;;;;;;;;8.96;76.14;100311.56;5108568;28;19976;-72
2021/10/12 01:06:18;;;;;;;;;;;;;;;9.01;76.11;100308.56;5108320;28;20453;-72
2021/10/12 01:08:46;;;;;;;;;;;;;;;9.01;76.22;100308.56;5108349;28;20415;-72
2021/10/12 01:11:14;;;;;;;;;;;;;;;9.07;76.38;100315.31;5108301;28;19972;-72
2021/10/12 01:13:43;;;;;;;;;;;;;;;9.12;75.79;100310.50;5105119;28;20410;-73
2021/10/12 01:16:11;;;;;;;;;;;;;;;9.11;76.36;100311.47;5107292;28;20431;-73
2021/10/12 01:18:39;;;;;;;;;;;;;;;9.14;76.34;100308.56;5107982;28;20419;-73
2021/10/12 01:21:08;;;;;;;;;;;;;;;9.18;75.90;100320.78;5108664;28;19995;-72
2021/10/12 01:23:36;;;;;;;;;;;;;;;9.22;75.95;100308.91;5108076;28;20185;-72
2021/10/12 01:26:04;;;;;;;;;;;;;;;9.22;75.71;100309.78;5108487;28;19972;-72
2021/10/12 01:28:32;;;;;;;;;;;;;;;9.21;76.24;100313.44;5106061;28;19999;-72
2021/10/12 01:30:59;;;;;;;;;;;;;;;9.26;75.95;100315.78;5100229;28;19968;-67
2021/10/12 01:33:27;;;;;;;;;;;;;;;9.29;75.46;100312.88;5108050;28;20067;-67
2021/10/12 01:35:55;;;;;;;;;;;;;;;9.28;75.97;100316.53;5094379;28;19968;-67
2021/10/12 01:38:31;;;;;;;;;;;;;;;9.34;75.29;100322.31;5107832;28;19979;-67
2021/10/12 01:40:59;;;;;;;;;;;;;;;9.37;75.17;100317.69;5108102;28;20403;-67
2021/10/12 01:43:27;;;;;;;;;;;;;;;9.36;75.47;100314.16;5106954;28;19983;-67
2021/10/12 01:45:58;;;;;;;;;;;;;;;9.40;75.22;100318.34;5107931;28;20365;-66
2021/10/12 01:48:26;;;;;;;;;;;;;;;9.42;75.82;100319.09;5099769;28;20147;-68
2021/10/12 01:50:54;;;;;;;;;;;;;;;9.42;75.50;100312.88;5108091;28;19968;-68
2021/10/12 01:53:22;;;;;;;;;;;;;;;9.42;75.59;100316.41;5107824;28;20373;-68
2021/10/12 01:55:51;;;;;;;;;;;;;;;9.42;75.64;100315.56;5107945;28;20018;-67
2021/10/12 01:58:19;;;;;;;;;;;;;;;9.44;75.39;100317.16;5107083;28;20149;-67
2021/10/12 02:00:47;;;;;;;;;;;;;;;9.46;75.56;100317.91;5106956;28;20607;-67
2021/10/12 02:03:15;;;;;;;;;;;;;;;9.43;76.62;100322.63;5106784;28;19974;-68
2021/10/12 02:05:42;;;;;;;;;;;;;;;9.47;76.36;100321.44;5104054;28;19972;-68
2021/10/12 02:08:10;;;;;;;;;;;;;;;9.54;75.49;100317.41;5111590;28;20392;-68
2021/10/12 02:10:38;;;;;;;;;;;;;;;9.51;75.61;100315.78;5111838;28;19972;-68
2021/10/12 02:13:08;;;;;;;;;;;;;;;9.59;75.35;100321.47;5111474;28;20442;-67
2021/10/12 02:15:36;;;;;;;;;;;;;;;9.60;74.71;100319.63;5111153;28;20329;-68
2021/10/12 02:18:04;;;;;;;;;;;;;;;9.56;75.08;100327.03;5110976;27;19991;-67
2021/10/12 02:20:32;;;;;;;;;;;;;;;9.51;75.07;100318.47;5106990;28;19972;-67
2021/10/12 02:23:00;;;;;;;;;;;;;;;9.49;75.39;100320.41;5103137;28;19995;-67
2021/10/12 02:25:28;;;;;;;;;;;;;;;9.41;74.88;100322.75;5110801;28;19976;-67
2021/10/12 02:27:56;;;;;;;;;;;;;;;9.38;75.64;100328.31;5110302;28;20010;-67
2021/10/12 02:30:25;;;;;;;;;;;;;;;9.45;75.40;100334.94;5110777;28;19972;-68
2021/10/12 02:32:53;;;;;;;;;;;;;;;9.42;74.55;100329.81;5111050;28;20036;-68
2021/10/12 02:35:21;;;;;;;;;;;;;;;9.35;74.35;100333.88;5110805;28;20292;-68
2021/10/12 02:37:48;;;;;;;;;;;;;;;9.39;74.22;100334.53;5110652;28;19952;-68
2021/10/12 02:40:16;;;;;;;;;;;;;;;9.35;74.00;100333.88;5111064;28;19982;-68
2021/10/12 02:42:46;;;;;;;;;;;;;;;9.29;74.31;100342.34;5108343;27;19995;-68
2021/10/12 02:45:14;;;;;;;;;;;;;;;9.19;74.13;100336.78;5111167;28;20407;-66
2021/10/12 02:47:43;;;;;;;;;;;;;;;9.17;74.69;100335.13;5110942;28;20419;-67
2021/10/12 02:50:11;;;;;;;;;;;;;;;9.08;74.27;100341.13;5109467;28;20466;-66
2021/10/12 02:52:39;;;;;;;;;;;;;;;9.07;74.58;100345.63;5110458;28;20174;-66
2021/10/12 02:55:08;;;;;;;;;;;;;;;8.98;74.38;100341.78;5102366;28;20026;-67
2021/10/12 02:57:36;;;;;;;;;;;;;;;8.96;74.62;100342.84;5106883;28;19972;-67
2021/10/12 03:00:05;;;;;;;;;;;;;;;8.91;74.36;100340.47;5109342;27;19969;-67
2021/10/12 03:02:33;;;;;;;;;;;;;;;8.87;74.86;100336.25;5109038;28;20037;-67
2021/10/12 03:05:02;;;;;;;;;;;;;;;8.79;74.51;100338.59;5109839;28;20410;-67
2021/10/12 03:07:30;;;;;;;;;;;;;;;8.75;74.57;100345.13;5119310;27;19979;-67
2021/10/12 03:09:58;;;;;;;;;;;;;;;8.75;74.09;100342.44;5109152;27;19980;-67
2021/10/12 03:12:26;;;;;;;;;;;;;;;8.70;74.58;100347.25;5104008;27;20083;-67
2021/10/12 03:14:54;;;;;;;;;;;;;;;8.63;74.77;100345.94;5109523;27;20520;-67
2021/10/12 03:17:22;;;;;;;;;;;;;;;8.55;74.24;100353.59;5108889;28;19983;-67
2021/10/12 03:19:49;;;;;;;;;;;;;;;8.57;74.09;100347.22;5106381;28;20431;-68
2021/10/12 03:22:19;;;;;;;;;;;;;;;8.18;74.58;100288.25;5096178;28;20070;-67
2021/10/12 03:24:47;;;;;;;;;;;;;;;8.53;74.46;100348.34;5108323;28;19968;-68
2021/10/12 03:27:14;;;;;;;;;;;;;;;8.50;74.03;100350.38;5109375;27;20052;-67
2021/10/12 03:29:42;;;;;;;;;;;;;;;8.48;74.26;100347.81;5107739;28;20053;-67
2021/10/12 03:32:10;;;;;;;;;;;;;;;8.41;73.64;100349.16;5109286;28;19968;-67
2021/10/12 03:34:38;;;;;;;;;;;;;;;8.33;73.69;100348.78;5109514;28;20133;-67
2021/10/12 03:37:06;;;;;;;;;;;;;;;8.29;73.59;100341.91;5109689;27;19991;-66
2021/10/12 03:39:35;;;;;;;;;;;;;;;8.19;73.27;100352.34;5108485;28;19963;-68
2021/10/12 03:42:03;;;;;;;;;;;;;;;8.10;72.85;100337.75;5109993;28;20007;-68
2021/10/12 03:44:31;;;;;;;;;;;;;;;8.12;72.93;100350.16;5109154;28;20347;-68
2021/10/12 03:46:59;;;;;;;;;;;;;;;8.04;73.16;100348.84;5107686;28;20338;-66
2021/10/12 03:49:27;;;;;;;;;;;;;;;7.90;72.54;100351.50;5108538;28;20386;-68
2021/10/12 03:51:55;;;;;;;;;;;;;;;7.90;72.99;100348.84;5110016;28;19973;-68
2021/10/12 03:54:23;;;;;;;;;;;;;;;7.93;73.56;100343.28;5099725;28;20338;-67
2021/10/12 03:56:52;;;;;;;;;;;;;;;7.94;73.68;100357.53;5109717;28;19976;-67
2021/10/12 03:59:20;;;;;;;;;;;;;;;7.92;73.84;100346.06;5106765;27;19976;-67
2021/10/12 04:01:48;;;;;;;;;;;;;;;7.90;73.63;100343.50;5108924;28;20325;-67
2021/10/12 04:04:16;;;;;;;;;;;;;;;7.88;73.75;100356.09;5108801;28;20007;-67
2021/10/12 04:06:44;;;;;;;;;;;;;;;7.87;73.60;100345.50;5108188;28;19981;-67
2021/10/12 04:09:11;;;;;;;;;;;;;;;7.87;74.31;100345.50;5108091;27;20299;-68
2021/10/12 04:11:39;;;;;;;;;;;;;;;7.85;73.86;100350.09;5108124;28;20432;-67
2021/10/12 04:14:08;;;;;;;;;;;;;;;7.82;74.42;100348.47;5098767;28;20413;-66
2021/10/12 04:16:41;;;;;;;;;;;;;;;7.81;74.27;100351.25;5097127;28;19973;-66
2021/10/12 04:19:09;;;;;;;;;;;;;;;7.84;74.59;100348.38;5098330;28;19972;-68
2021/10/12 04:21:37;;;;;;;;;;;;;;;7.85;74.26;100345.59;5097770;28;19968;-68
2021/10/12 04:24:05;;;;;;;;;;;;;;;7.86;74.25;100344.66;5100919;28;20354;-66
2021/10/12 04:26:33;;;;;;;;;;;;;;;7.86;74.27;100347.31;5099823;28;19968;-67
2021/10/12 04:29:01;;;;;;;;;;;;;;;7.83;74.61;100350.19;5097994;28;19988;-67
2021/10/12 04:31:30;;;;;;;;;;;;;;;7.79;74.41;100348.66;5093653;28;20075;-67
2021/10/12 04:34:04;;;;;;;;;;;;;;;7.71;74.77;100346.47;5087642;28;19973;-67
2021/10/12 04:36:31;;;;;;;;;;;;;;;7.64;74.66;100349.59;5088630;28;19979;-68
2021/10/12 04:38:59;;;;;;;;;;;;;;;7.66;75.27;100348.59;5087046;28;20311;-67
2021/10/12 04:41:27;;;;;;;;;;;;;;;7.61;75.35;100352.47;5088740;28;19976;-68
2021/10/12 04:43:55;;;;;;;;;;;;;;;7.58;74.87;100356.19;5094180;28;19992;-67
2021/10/12 04:46:23;;;;;;;;;;;;;;;7.55;75.53;100361.72;5099832;28;19972;-67
2021/10/12 04:48:52;;;;;;;;;;;;;;;7.48;74.76;100358.59;5082343;28;20454;-68
2021/10/12 04:51:20;;;;;;;;;;;;;;;7.38;75.29;100359.25;5103025;28;20252;-69
2021/10/12 04:53:48;;;;;;;0.00;0.00;;;;;;;7.40;75.07;100357.34;5103735;28;20484;-68
2021/10/12 04:56:16;;;;;;;;;;;;;;;7.34;75.70;100363.03;5105888;28;20113;-68
2021/10/12 04:58:46;;;;;;;;;;;;;;;7.29;75.35;100363.31;5099714;28;20013;-67
2021/10/12 05:01:14;;;;;;;;;;;;;;;7.27;75.53;100361.69;5103993;28;20358;-68
2021/10/12 05:03:42;;;;;;;;;;;;;;;7.15;75.04;100357.97;5104352;28;19984;-68
2021/10/12 05:06:11;;;;;;;;;;;;;;;7.13;75.69;100362.53;5105277;28;19972;-66
2021/10/12 05:08:39;;;;;;;;;;;;;;;7.11;75.75;100367.09;5106444;28;19972;-68
2021/10/12 05:11:07;;;;;;;;;;;;;;;7.10;75.57;100366.25;5103620;28;20397;-67
2021/10/12 05:13:35;;;;;;;;;;;;;;;7.09;76.26;100366.34;5104593;28;19975;-67
2021/10/12 05:16:10;;;;;;;;;;;;;;;7.06;76.00;100371.88;5103860;28;19972;-68
2021/10/12 05:18:40;;;;;;;;;;;;;;;7.03;75.82;100370.19;5105459;28;19975;-67
2021/10/12 05:21:08;;;;;;;;;;;;;;;7.05;76.53;100373.69;5105148;28;19968;-68
2021/10/12 05:23:37;;;;;;;;;;;;;;;7.01;75.79;100376.59;5101147;28;20002;-67
2021/10/12 05:26:06;;;;;;;;;;;;;;;7.03;76.61;100382.69;5097471;28;20292;-67
2021/10/12 05:28:36;;;;;;;;;;;;;;;7.01;76.68;100382.78;5099536;28;19992;-67
2021/10/12 05:31:04;;;;;;;;;;;;;;;7.04;76.62;100379.97;5098844;28;20315;-67
2021/10/12 05:33:32;;;;;;;;;;;;;;;7.04;76.14;100389.75;5099500;28;19972;-67
2021/10/12 05:36:00;;;;;;;;;;;;;;;7.05;76.87;100384.34;5099740;28;19968;-67
2021/10/12 05:38:28;;;;;;;;;;;;;;;7.08;76.37;100386.84;5096630;28;20037;-67
2021/10/12 05:40:58;;;;;;;;;;;;;;;7.09;76.49;100391.22;5102934;28;20156;-67
2021/10/12 05:43:25;;;;;;;;;;;;;;;7.13;76.21;100383.88;5103746;28;20002;-67
2021/10/12 05:45:54;;;;;;;;;;;;;;;7.15;76.63;100384.66;5101469;28;19964;-67
2021/10/12 05:48:22;;;;;;;;;;;;;;;7.20;76.07;100387.06;5103684;27;20438;-68
2021/10/12 05:50:49;;;;;;;;;;;;;;;7.21;76.42;100386.09;5100190;28;19989;-67
2021/10/12 05:53:28;;;;;;;;;;;;;;;7.26;76.29;100386.69;5102466;28;20058;-67
2021/10/12 05:56:02;;;;;;;;;;;;;;;7.30;76.57;100396.22;5101523;28;19972;-67
2021/10/12 05:58:34;;;;;;;;;;;;;;;7.33;76.36;100396.03;5101019;28;20032;-68
2021/10/12 06:01:03;;;;;;;;;;;;;;;7.40;76.13;100389.41;5102221;28;20395;-68
2021/10/12 06:03:31;;;;;;;;;;;;;;;7.47;76.56;100399.59;5098881;28;20344;-67
2021/10/12 06:06:00;;;;;;;;;;;;;;;7.47;76.51;100396.06;5102298;28;20049;-67
2021/10/12 06:08:30;;;;;;;;;;;;;;;7.51;76.58;100404.75;5101593;27;20571;-67
2021/10/12 06:10:58;;;;;;;;;;;;;;;7.55;76.39;100406.28;5099205;28;19968;-67
2021/10/12 06:13:26;;;;;;;;;;;;;;;7.64;76.63;100403.91;5100978;28;19976;-67
2021/10/12 06:15:55;;;;;;;;;;;;;;;7.71;76.43;100410.63;5103248;27;19979;-67
2021/10/12 06:18:23;;;;;;;;;;;;;;;7.81;75.76;100412.72;5099353;28;20443;-66
2021/10/12 06:20:52;;;;;;;;;;;;;;;7.88;76.09;100408.72;5103246;28;19972;-67
2021/10/12 06:23:20;;;;;;;;;;;;;;;7.93;75.54;100410.13;5103267;28;19994;-67
2021/10/12 06:25:48;;;;;;;;;;;;;;;8.02;75.41;100408.72;5102959;28;19976;-67
2021/10/12 06:28:17;;;;;;;;;;;;;;;8.03;74.59;100411.31;5103946;28;20049;-67
2021/10/12 06:30:45;;;;;;;;;;;;;;;8.05;74.69;100409.38;5084481;28;19972;-67
2021/10/12 06:33:15;;;;;;;;;;;;;;;7.99;74.23;100412.44;5100826;27;19992;-67
2021/10/12 06:35:43;;;;;;;;;;;;;;;8.11;74.73;100416.16;5098995;28;19968;-68
2021/10/12 06:38:11;;;;;;;;;;;;;;;8.11;74.19;100416.16;5099408;28;19938;-68
2021/10/12 06:40:40;;;;;;;;;;;;;;;8.13;73.88;100418.72;5099365;28;19968;-67
2021/10/12 06:43:09;;;;;;;;;;;;;;;8.14;74.06;100417.78;5102224;27;20429;-67
2021/10/12 06:45:37;;;;;;;;;;;;;;;8.15;73.64;100422.16;5107449;28;19984;-67
2021/10/12 06:48:05;;;;;;;;;;;;;;;8.22;73.83;100420.81;5107623;28;19968;-66
2021/10/12 06:50:35;;;;;;;;;;;;;;;8.24;73.27;100422.44;5101794;28;20018;-67
2021/10/12 06:53:04;;;;;;;;;;;;;;;8.22;73.04;100429.72;5100595;28;20570;-67
2021/10/12 06:55:32;;;;;;;;;;;;;;;8.24;73.27;100430.47;5101449;28;20345;-67
2021/10/12 06:58:00;;;;;;;;;;;;;;;8.27;73.71;100435.66;5099736;28;19968;-67
2021/10/12 07:00:28;;;;;;;;;;;;;;;8.18;72.59;100430.84;5099614;28;19972;-67
2021/10/12 07:02:56;;;;;;;;;;;;;;;8.18;72.78;100440.69;5101181;27;19976;-67
2021/10/12 07:05:24;;;;;;;;;;;;;;;8.23;72.99;100438.59;5097438;28;19988;-67
2021/10/12 07:07:54;;;;;;;;;;;;;;;8.28;72.63;100441.84;5100703;28;19983;-67
2021/10/12 07:10:22;;;;;;;;;;;;;;;8.35;73.60;100446.75;5100778;28;20295;-67
2021/10/12 07:12:52;;;;;;;;;;;;;;;8.41;73.23;100450.84;5101614;28;20021;-66
2021/10/12 07:15:20;;;;;;;;;;;;;;;8.43;73.21;100448.06;5098102;28;20415;-67
2021/10/12 07:17:48;;;;;;;;;;;;;;;8.54;73.17;100454.44;5099307;28;20419;-67
2021/10/12 07:20:16;;;;;;;;;;;;;;;8.62;71.99;100443.28;5105197;28;19979;-68
2021/10/12 07:22:43;;;;;;;;;;;;;;;8.65;72.33;100454.63;5085986;28;19968;-68
2021/10/12 07:25:13;;;;;;;;;;;;;;;8.73;71.99;100448.78;5099835;27;20822;-68
2021/10/12 07:27:40;;;;;;;;;;;;;;;8.80;72.87;100451.91;5102460;27;19991;-68
2021/10/12 07:30:19;;;;;;;;;;;;;;;8.81;72.28;100454.50;5104877;28;19968;-68
2021/10/12 07:32:47;;;;;;;;;;;;;;;8.86;72.12;100452.38;5105998;28;19972;-66
2021/10/12 07:35:14;;;;;;;;;;;;;;;8.92;71.09;100454.66;5103091;28;20311;-68
2021/10/12 07:37:42;;;;;;;;;;;;;;;9.04;72.22;100458.34;5105681;27;20088;-68
2021/10/12 07:40:11;;;;;;;;;;;;;;;8.96;70.67;100452.63;5106504;28;20021;-67
2021/10/12 07:42:41;;;;;;;;;;;;;;;9.02;71.47;100461.13;5104569;28;19943;-67
2021/10/12 07:45:09;;;;;;;;;;;;;;;9.13;70.78;100456.88;5107048;28;20459;-68
2021/10/12 07:47:37;;;;;;;;;;;;;;;9.19;69.69;100461.84;5105292;28;20295;-67
2021/10/12 07:50:06;;;;;;;98.97;28.45;;;;;;;9.16;70.64;100457.50;5106363;28;20465;-67
2021/10/12 07:52:36;;;;;;;48.20;20.00;;;;;;;9.03;nan;100414.63;5105327;28;20207;-68
2021/10/12 07:55:26;;;;;;;40.53;18.93;;;;;;;9.16;69.57;100453.97;5103731;28;20334;-66
2021/10/12 07:57:58;;;;;;;42.50;19.17;;;;;;;9.14;70.28;100431.78;5104416;28;20187;-67
2021/10/12 08:00:28;;;;;;;45.43;19.80;;;;;;;9.37;70.14;100449.88;5105605;28;20213;-66
2021/10/12 08:02:56;;;;;;;59.47;23.10;;;;;;;9.39;67.77;100463.16;5102522;27;20464;-66
2021/10/12 08:05:25;;;;;;;57.77;22.10;;;;;;;9.47;69.14;100464.34;5106238;28;20506;-66
2021/10/12 08:07:54;;;;;;;81.37;26.10;;;;;;;9.28;68.01;100462.06;5105633;28;20939;-67
2021/10/12 08:10:31;;;;;;;61.43;23.10;;;;;;;9.40;68.96;100463.06;5105592;28;20479;-66
2021/10/12 08:13:02;;;;;;;72.73;24.97;;;;;;;9.39;68.21;100473.88;5104042;28;20468;-65
2021/10/12 08:15:31;;;;;;;75.87;25.80;;;;;;;9.49;68.22;100469.59;5101309;28;20441;-65
2021/10/12 08:18:00;;;;;;;93.70;28.03;;;;;;;9.45;69.07;100468.97;5101934;28;20462;-66
2021/10/12 08:20:28;;;;;;;60.73;22.83;;;;;;;9.51;69.30;100473.06;5100715;28;20455;-67
2021/10/12 08:22:57;;;;;;;75.33;25.37;;;;;;;9.53;68.84;100477.38;5097469;28;20470;-66
2021/10/12 08:25:25;;;;;;;77.33;26.23;;;;;;;9.65;68.84;100473.84;5101229;28;20219;-66
2021/10/12 08:27:53;;;;;;;85.80;27.13;;;;;;;9.67;68.35;100462.16;5100303;28;20640;-67
2021/10/12 08:30:24;;;;;;;89.07;27.97;;;;;;;9.56;67.89;100479.84;5100923;28;20504;-66
2021/10/12 08:32:55;;;;;;;80.30;26.30;;;;;;;9.36;68.60;100466.06;5099337;27;20894;-66
2021/10/12 08:35:24;;;;;;;103.83;30.43;;;;;;;9.56;68.34;100482.53;5081714;28;20846;-66
2021/10/12 08:37:53;;;;;;;91.80;27.93;;;;;;;9.59;68.80;100476.94;5099745;28;20801;-66
2021/10/12 08:40:21;;;;;;;92.03;28.33;;;;;;;9.60;67.80;100486.72;5100079;28;20569;-66
2021/10/12 08:42:50;;;;;;;81.63;27.23;;;;;;;9.64;67.26;100495.41;5106732;28;20672;-66
2021/10/12 08:45:20;;;;;;;80.03;26.73;;;;;;;9.52;68.72;100486.38;5104120;28;20486;-67
2021/10/12 08:47:51;;;;;;;85.13;27.20;;;;;;;9.58;68.50;100491.31;5099293;28;20815;-67
2021/10/12 08:50:22;;;;;;;86.37;27.03;;;;;;;9.67;67.60;100484.47;5102570;28;20444;-66
2021/10/12 08:52:51;;;;;;;84.37;27.00;;;;;;;9.79;68.71;100485.44;5103489;28;20565;-66
2021/10/12 08:55:19;;;;;;;81.90;26.57;;;;;;;9.85;66.92;100495.75;5098722;28;20546;-68
2021/10/12 08:57:48;;;;;;;90.20;29.07;;;;;;;9.91;68.13;100487.28;5093736;28;20460;-67
2021/10/12 09:00:18;;;;;;;90.90;29.20;;;;;;;9.97;68.01;100489.53;5099352;28;20512;-67
2021/10/12 09:03:15;;;;;;;86.40;29.13;;;;;;;9.97;66.81;100492.22;5099377;28;20467;-67
2021/10/12 09:05:52;;;;;;;109.43;30.50;;;;;;;9.93;66.19;100485.34;5100630;28;20881;-67
2021/10/12 09:08:24;;;;;;;99.27;29.63;;;;;;;9.66;67.02;100447.88;5100918;28;20482;-67
2021/10/12 09:10:53;;;;;;;68.00;25.40;;;;;;;9.94;68.37;100487.94;5097109;28;20460;-67
2021/10/12 09:13:22;;;;;;;72.53;25.73;;;;;;;10.08;68.31;100492.31;5099842;28;20967;-67
2021/10/12 09:16:07;;;;;;;97.30;28.93;;;;;;;10.14;67.06;100499.09;5103008;28;20456;-67
2021/10/12 09:18:50;;;;;;;66.40;24.17;;;;;;;10.09;67.65;100502.09;5098605;28;20540;-67
2021/10/12 09:21:21;;;;;;;58.63;22.50;;;;;;;10.15;67.71;100496.31;5098725;28;20448;-67
2021/10/12 09:23:50;;;;;;;54.03;21.60;;;;;;;10.18;67.99;100489.88;5101171;27;20390;-68
2021/10/12 09:26:24;;;;;;;63.47;23.70;;;;;;;10.13;66.41;100492.03;5103097;28;20215;-67
2021/10/12 09:28:58;;;;;;;56.43;22.50;;;;;;;10.16;67.80;100478.38;5102084;27;20612;-67
2021/10/12 09:31:34;;;;;;;44.43;19.80;;;;;;;10.36;68.11;100499.31;5099191;28;20203;-67
2021/10/12 09:34:06;;;;;;;38.43;19.07;;;;;;;10.42;66.00;100493.56;5102085;28;20873;-66
2021/10/12 09:36:40;;;;;;;39.57;19.07;;;;;;;10.37;67.14;100495.69;5100543;28;20996;-66
2021/10/12 09:39:15;;;;;;;44.20;19.90;;;;;;;10.27;66.25;100495.47;5102348;28;20453;-66
2021/10/12 09:41:45;;;;;;;43.77;19.93;;;;;;;10.35;65.91;100496.75;5099836;28;20773;-66
2021/10/12 09:44:15;;;;;;;44.77;20.10;;;;;;;10.23;65.20;100502.03;5082602;28;20882;-66
2021/10/12 09:46:46;;;;;;;47.17;20.83;;;;;;;10.27;66.53;100492.78;5099528;28;20503;-66
2021/10/12 09:49:20;;;;;;;51.77;21.50;;;;;;;10.51;65.39;100502.75;5101093;28;20455;-66
2021/10/12 09:51:56;;;;;;;43.90;20.37;;;;;;;10.56;64.85;100501.47;5082417;28;20542;-66
2021/10/12 09:54:27;;;;;;;41.10;19.10;;;;;;;10.56;64.61;100479.97;5103351;28;20475;-66
2021/10/12 09:56:56;;;;;;;34.00;18.20;;;;;;;10.72;64.91;100500.38;5102358;28;20547;-65
2021/10/12 09:59:24;;;;;;;35.20;18.37;;;;;;;10.82;64.08;100502.28;5102586;28;20455;-66
2021/10/12 10:01:54;;;;;;;37.47;18.77;;;;;;;10.85;63.95;100502.03;5101296;28;20455;-66
2021/10/12 10:04:25;;;;;;;45.13;21.07;;;;;;;10.81;64.69;100503.25;5098092;28;20548;-66
2021/10/12 10:07:04;;;;;;;43.77;19.87;;;;;;;11.03;64.86;100505.22;5101537;28;20565;-67
2021/10/12 10:09:34;;;;;;;56.03;22.90;;;;;;;11.05;62.37;100497.91;5102050;27;20464;-66
2021/10/12 10:12:07;;;;;;;53.83;22.90;;;;;;;11.17;63.10;100501.50;5099634;28;20546;-66
2021/10/12 10:14:36;;;;;;;51.70;21.50;;;;;;;11.05;62.95;100507.81;5099429;28;20464;-67
2021/10/12 10:17:06;;;;;;;46.70;20.30;;;;;;;11.03;62.99;100501.69;5100545;28;20562;-66
2021/10/12 10:19:37;;;;;;;50.77;21.93;;;;;;;11.00;62.40;100499.19;5101054;28;20661;-67
2021/10/12 10:22:05;;;;;;;51.17;21.40;;;;;;;10.93;63.99;100471.94;5094478;28;20475;-67
2021/10/12 10:24:45;;;;;;;53.20;22.13;;;;;;;11.10;64.38;100501.09;5101036;28;20996;-67
2021/10/12 10:27:34;;;;;;;54.93;22.40;;;;;;;10.95;62.37;100499.53;5100748;28;20498;-67
2021/10/12 10:30:28;;;;;;;47.30;20.87;;;;;;;10.94;63.56;100488.91;5099757;28;20963;-67
2021/10/12 10:32:58;;;;;;;43.83;20.03;;;;;;;10.95;63.56;100496.00;5103422;28;20946;-67
2021/10/12 10:35:42;;;;;;;43.63;20.00;;;;;;;11.08;65.02;100492.31;5099244;28;20465;-67
2021/10/12 10:38:33;;;;;;;51.83;21.90;;;;;;;11.15;65.23;100498.06;5099948;28;20498;-66
2021/10/12 10:41:38;;;;;;;53.67;22.03;;;;;;;11.16;62.36;100497.09;5101722;28;20851;-66
2021/10/12 10:44:06;;;;;;;49.00;21.17;;;;;;;11.22;65.07;100493.94;5077544;28;20513;-66
2021/10/12 10:46:42;;;;;;;53.40;21.93;;;;;;;11.16;61.54;100506.03;5100477;28;20484;-66
2021/10/12 10:49:16;;;;;;;54.57;22.10;;;;;;;10.96;61.24;100505.75;5101294;28;20459;-66
2021/10/12 10:52:05;;;;;;;59.67;23.30;;;;;;;11.03;62.28;100507.06;5099682;27;20577;-67
2021/10/12 10:55:03;;;;;;;62.53;23.80;;;;;;;11.30;61.12;100510.34;5103701;27;20459;-66
2021/10/12 10:57:32;;;;;;;71.90;26.00;;;;;;;11.54;61.81;100510.34;5106072;27;20483;-72
2021/10/12 11:00:26;;;;;;;74.47;25.83;;;;;;;11.71;63.47;100509.09;5098614;27;20464;-72
2021/10/12 11:02:56;;;;;;;73.10;25.43;;;;;;;11.69;61.00;100505.66;5101967;28;20486;-72
2021/10/12 11:05:32;;;;;;;73.83;25.73;;;;;;;11.67;60.53;100500.41;5107172;28;20474;-72
2021/10/12 11:08:13;;;;;;;75.43;25.87;;;;;;;11.54;60.59;100504.97;5102139;28;20745;-72
2021/10/12 11:10:42;;;;;;;74.83;25.97;;;;;;;11.68;60.44;100517.41;5099145;28;20469;-73
2021/10/12 11:13:10;;;;;;;76.07;26.33;;;;;;;11.71;60.21;100509.94;5105510;27;20452;-73
2021/10/12 11:15:50;;;;;;;77.93;26.30;;;;;;;11.59;59.17;100518.06;5106403;28;21032;-72
2021/10/12 11:18:18;;;;;;;87.23;28.30;;;;;;;11.39;59.55;100508.84;5107837;28;20470;-73
2021/10/12 11:20:48;;;;;;;84.53;27.40;;;;;;;11.29;60.05;100516.72;5108924;28;20448;-71
2021/10/12 11:23:25;;;;;;;80.50;26.53;;;;;;;11.41;60.81;100471.94;5109000;28;20492;-72
2021/10/12 11:26:02;;;;;;;79.50;27.23;;;;;;;11.86;60.96;100521.38;5096663;28;20978;-72
2021/10/12 11:28:33;;;;;;;75.37;26.03;;;;;;;11.85;59.38;100524.19;5088990;28;20578;-72
2021/10/12 11:31:07;;;;;;;74.37;25.70;;;;;;;11.92;60.51;100518.22;5109406;28;20452;-72
2021/10/12 11:33:40;;;;;;;77.30;25.80;;;;;;;11.73;59.60;100477.53;5109233;28;21007;-73
2021/10/12 11:36:10;;;;;;;80.27;27.20;;;;;;;11.99;58.80;100522.19;5108378;28;20467;-73
2021/10/12 11:38:43;;;;;;;60.83;24.40;;;;;;;12.05;60.01;100516.31;5108944;28;20466;-72
2021/10/12 11:41:20;;;;;;;52.93;22.43;;;;;;;12.08;60.28;100520.59;5108915;28;20456;-73
2021/10/12 11:43:49;;;;;;;38.27;18.83;;;;;;;12.18;59.24;100521.59;5107946;28;20467;-73
2021/10/12 11:46:22;;;;;;;47.33;20.77;;;;;;;12.03;59.38;100479.72;5109274;28;20854;-73
2021/10/12 11:48:50;;;;;;;48.43;21.37;;;;;;;12.25;59.30;100524.69;5107596;27;20326;-73
2021/10/12 11:51:21;;;;;;;58.23;23.37;;;;;;;12.41;60.03;100514.41;5109856;28;20214;-71
2021/10/12 11:53:53;;;;;;;48.17;21.30;;;;;;;12.53;58.91;100515.25;5107721;28;20195;-72
2021/10/12 11:56:23;;;;;;;49.97;21.73;;;;;;;12.58;59.48;100510.38;5109308;28;20191;-72
2021/10/12 11:58:57;;;;;;;52.17;22.43;;;;;;;12.37;58.97;100511.09;5106968;28;20397;-72
2021/10/12 12:01:30;;;;;;;43.50;20.47;;;;;;;12.44;59.30;100512.31;5094784;28;20221;-72
2021/10/12 12:04:00;;;;;;;59.07;23.40;;;;;;;12.63;58.92;100517.13;5107742;28;20810;-73
2021/10/12 12:06:31;;;;;;;64.00;25.13;;;;;;;12.70;58.83;100517.47;5108862;28;20475;-72
2021/10/12 12:09:04;;;;;;;61.07;23.73;;;;;;;12.83;56.45;100517.31;5108168;28;20493;-72
2021/10/12 12:11:33;;;;;;;56.60;23.20;;;;;;;12.52;58.06;100449.75;5108703;28;20206;-72
2021/10/12 12:14:04;;;;;;;53.27;22.53;;;;;;;12.66;56.60;100514.16;5107427;27;20195;-72
2021/10/12 12:16:35;;;;;;;52.20;22.10;;;;;;;12.84;56.69;100525.28;5108379;28;20274;-72
2021/10/12 12:19:20;;;;;;;47.73;21.27;;;;;;;12.72;56.12;100523.59;5107612;28;20206;-73
2021/10/12 12:21:49;;;;;;;60.77;23.77;;;;;;;12.42;55.95;100516.13;5108216;28;20214;-72
2021/10/12 12:24:20;;;;;;;58.67;23.20;;;;;;;12.54;57.86;100520.50;5089746;28;20882;-73